Tri-Cities Airport Airport (TRI)

 

Airport Diagram
Current Weather/Forecast (VFR Conditions)
METAR KTRI 290353Z 36003KT 10SM CLR 03/01 A3016 RMK AO2 SLP205 T00280011 $
TAF KTRI 282320Z 2900/2924 00000KT P6SM SKC FM291800 14004KT P6SM BKN180 FM292100 14004KT P6SM BKN050

All Charts
General
Chart Name Download
AIRPORT DIAGRAM
TAKEOFF MINIMUMS
ALTERNATE MINIMUMS

Departures
Chart Name Download
KINGS TWO
KINGS TWO, CONT.1

Approaches
Chart Name Download
ILS OR LOC RWY 05
ILS OR LOC RWY 23
ILS RWY 23 (SA CAT I)
ILS RWY 23 (CAT II)
RNAV (GPS) RWY 05
RNAV (GPS) RWY 09
RNAV (GPS) RWY 23
RNAV (GPS) RWY 27


Inbound Traffic (Arrivals)

No inbound traffic.


Outbound Traffic (Departures)

No outbound traffic.